Time;durP1;ratioP1;P1;durP2;ratioP2;P2;SDS_P1;SDS_P2;PMS_P1;PMS_P2;Temp;Humidity;BMP_temperature;BMP_pressure;BME280_temperature;BME280_humidity;BME280_pressure;Samples;Min_cycle;Max_cycle;Signal;HPM_P1;HPM_P2
2023/07/03 00:00:11;;;;;;;3.88;3.40;;;24.20;75.00;;;;;;5133553;27;20031;-77
2023/07/03 00:02:38;;;;;;;3.95;3.50;;;24.20;74.80;;;;;;5133621;27;20019;-77
2023/07/03 00:05:06;;;;;;;6.10;3.50;;;24.20;74.50;;;;;;5133696;27;20092;-78
2023/07/03 00:07:32;;;;;;;6.13;3.88;;;24.20;74.30;;;;;;5133214;27;20072;-78
2023/07/03 00:09:58;;;;;;;6.82;3.90;;;24.20;74.20;;;;;;5133446;27;20046;-77
2023/07/03 00:12:24;;;;;;;4.70;3.35;;;24.20;74.50;;;;;;5133750;27;20020;-78
2023/07/03 00:14:50;;;;;;;6.10;3.90;;;24.20;74.70;;;;;;5133610;27;20090;-78
2023/07/03 00:17:16;;;;;;;4.00;3.60;;;24.10;75.20;;;;;;5133578;27;20026;-78
2023/07/03 00:19:42;;;;;;;5.40;4.10;;;24.20;75.30;;;;;;5133119;27;20019;-78
2023/07/03 00:22:08;;;;;;;5.43;3.80;;;24.20;75.10;;;;;;5135079;27;20429;-77
2023/07/03 00:24:33;;;;;;;6.47;3.67;;;24.20;75.20;;;;;;5137550;27;20068;-78
2023/07/03 00:27:00;;;;;;;7.28;4.20;;;24.10;75.00;;;;;;5137586;27;20063;-77
2023/07/03 00:29:31;;;;;;;7.07;4.00;;;24.20;75.10;;;;;;5137436;27;20376;-77
2023/07/03 00:31:57;;;;;;;4.78;3.78;;;24.10;75.10;;;;;;5118993;27;20046;-78
2023/07/03 00:34:23;;;;;;;5.60;4.03;;;24.10;75.20;;;;;;5137186;27;20026;-78
2023/07/03 00:36:49;;;;;;;4.25;3.80;;;24.10;75.40;;;;;;5137308;27;20027;-78
2023/07/03 00:39:15;;;;;;;5.55;3.50;;;24.10;75.60;;;;;;5137267;27;20025;-78
2023/07/03 00:41:43;;;;;;;4.80;4.15;;;24.10;75.70;;;;;;5137831;27;20019;-78
2023/07/03 00:44:15;;;;;;;10.32;4.22;;;24.10;75.60;;;;;;5137089;27;20026;-77
2023/07/03 00:46:41;;;;;;;;;;;24.10;75.40;;;;;;5137721;27;20068;-77
2023/07/03 00:49:09;;;;;;;5.75;4.13;;;24.20;75.20;;;;;;5137234;27;19903;-77
2023/07/03 00:51:39;;;;;;;4.03;3.55;;;24.20;74.90;;;;;;5137243;27;20088;-78
2023/07/03 00:54:05;;;;;;;6.35;3.72;;;24.20;75.00;;;;;;5137079;27;20392;-77
2023/07/03 00:56:30;;;;;;;4.38;3.42;;;24.20;75.20;;;;;;5136828;27;20027;-79
2023/07/03 00:58:56;;;;;;;7.75;3.92;;;24.10;75.20;;;;;;5134346;27;20023;-78
2023/07/03 01:01:35;;;;;;;6.45;3.70;;;24.10;75.40;;;;;;5133980;27;20059;-77
2023/07/03 01:04:08;;;;;;;5.70;4.10;;;24.10;75.50;;;;;;5134348;27;20497;-78
2023/07/03 01:06:44;;;;;;;4.55;3.88;;;24.10;75.60;;;;;;5136038;27;20039;-78
2023/07/03 01:09:13;;;;;;;5.13;4.10;;;24.10;75.90;;;;;;5117498;27;20384;-78
2023/07/03 01:11:40;;;;;;;5.97;4.10;;;24.10;76.20;;;;;;5136337;27;20430;-78
2023/07/03 01:14:09;;;;;;;4.60;3.92;;;24.00;76.20;;;;;;5136273;27;20015;-78
2023/07/03 01:16:36;;;;;;;5.25;3.75;;;24.00;76.40;;;;;;5136529;27;20023;-79
2023/07/03 01:19:08;;;;;;;5.40;3.72;;;24.00;76.40;;;;;;5136374;27;20031;-78
2023/07/03 01:21:49;;;;;;;3.78;3.45;;;24.00;76.30;;;;;;5136097;27;20039;-78
2023/07/03 01:24:59;;;;;;;8.27;3.53;;;23.90;76.30;;;;;;5136414;27;20464;-78
2023/07/03 01:27:32;;;;;;;4.35;3.95;;;23.90;76.80;;;;;;5033106;28;20076;-79
2023/07/03 01:29:59;;;;;;;5.45;4.03;;;23.90;77.30;;;;;;5119980;27;20035;-78
2023/07/03 01:32:29;;;;;;;6.95;4.20;;;23.90;77.70;;;;;;5135779;27;20539;-78
2023/07/03 01:34:56;;;;;;;5.70;4.40;;;23.90;78.30;;;;;;5136151;27;20430;-78
2023/07/03 01:37:27;;;;;;;5.78;4.20;;;23.90;78.50;;;;;;5136075;27;20020;-78
2023/07/03 01:39:55;;;;;;;6.35;4.40;;;23.80;78.90;;;;;;5136226;27;20072;-78
2023/07/03 01:42:23;;;;;;;5.53;4.32;;;23.80;79.20;;;;;;5135821;27;20034;-78
2023/07/03 01:44:49;;;;;;;4.80;4.25;;;23.80;79.60;;;;;;5136337;27;20350;-79
2023/07/03 01:47:16;;;;;;;5.70;4.68;;;23.80;79.90;;;;;;5136047;27;20042;-79
2023/07/03 01:49:41;;;;;;;6.07;3.85;;;23.90;80.00;;;;;;5135832;27;20026;-79
2023/07/03 01:52:27;;;;;;;5.68;4.63;;;23.80;79.60;;;;;;5135730;27;20392;-79
2023/07/03 01:55:02;;;;;;;7.53;4.65;;;23.80;80.00;;;;;;5128479;27;20164;-79
2023/07/03 01:57:32;;;;;;;5.78;4.32;;;23.80;80.40;;;;;;5135973;27;20054;-78
2023/07/03 02:00:00;;;;;;;7.25;4.50;;;23.80;80.20;;;;;;5117215;27;20023;-78
2023/07/03 02:02:29;;;;;;;5.20;4.20;;;23.80;80.00;;;;;;5135565;27;20141;-79
2023/07/03 02:05:06;;;;;;;5.55;4.30;;;23.80;80.30;;;;;;5135584;27;20468;-80
2023/07/03 02:07:32;;;;;;;5.28;4.10;;;23.80;80.60;;;;;;5135653;27;20098;-80
2023/07/03 02:09:59;;;;;;;6.18;4.28;;;23.80;80.50;;;;;;5135448;27;20031;-80
2023/07/03 02:12:25;;;;;;;5.43;4.40;;;23.80;79.90;;;;;;5135162;27;20400;-78
2023/07/03 02:14:51;;;;;;;5.05;3.97;;;23.70;79.50;;;;;;5116984;27;20023;-79
2023/07/03 02:17:17;;;;;;;4.78;3.88;;;23.70;79.90;;;;;;5135594;27;20023;-79
2023/07/03 02:19:42;;;;;;;9.45;4.35;;;23.60;80.00;;;;;;5135203;27;20041;-80
2023/07/03 02:22:08;;;;;;;7.38;5.15;;;23.60;80.70;;;;;;5134997;27;20047;-81
2023/07/03 02:24:34;;;;;;;7.57;4.35;;;23.50;81.90;;;;;;5134930;27;20062;-79
2023/07/03 02:27:00;;;;;;;6.32;4.40;;;23.50;82.60;;;;;;5135145;27;20023;-79
2023/07/03 02:29:25;;;;;;;5.95;4.93;;;23.40;83.50;;;;;;5135316;27;20058;-80
2023/07/03 02:31:51;;;;;;;6.15;4.72;;;23.40;84.60;;;;;;5116740;27;20039;-77
2023/07/03 02:34:17;;;;;;;5.97;4.97;;;23.30;85.40;;;;;;5134871;27;20015;-78
2023/07/03 02:36:47;;;;;;;7.72;4.72;;;23.30;86.30;;;;;;5135161;27;20069;-78
2023/07/03 02:39:12;;;;;;;6.63;5.10;;;23.30;87.10;;;;;;5134823;27;20019;-79
2023/07/03 02:41:38;;;;;;;6.22;4.80;;;23.30;87.90;;;;;;5134820;27;20031;-78
2023/07/03 02:44:04;;;;;;;11.75;5.90;;;23.20;88.60;;;;;;5133910;27;20019;-77
2023/07/03 02:46:30;;;;;;;6.50;5.80;;;23.20;89.20;;;;;;5134928;27;20102;-78
2023/07/03 02:48:55;;;;;;;8.23;5.35;;;23.20;89.80;;;;;;5134767;27;20067;-78
2023/07/03 02:51:21;;;;;;;8.35;5.70;;;23.20;90.20;;;;;;5134548;27;20114;-78
2023/07/03 02:53:47;;;;;;;8.32;6.10;;;23.20;90.50;;;;;;5134588;27;20026;-79
2023/07/03 02:56:13;;;;;;;8.88;6.20;;;23.20;90.80;;;;;;5134425;27;20031;-78
2023/07/03 02:58:39;;;;;;;7.28;5.75;;;23.30;91.10;;;;;;5134062;27;20027;-78
2023/07/03 03:01:04;;;;;;;6.65;5.57;;;23.20;91.20;;;;;;5134705;27;20027;-78
2023/07/03 03:03:31;;;;;;;9.77;5.90;;;23.30;91.40;;;;;;5134602;27;20376;-77
2023/07/03 03:05:56;;;;;;;9.40;5.40;;;23.30;91.50;;;;;;5134348;27;20031;-78
2023/07/03 03:08:23;;;;;;;8.25;5.80;;;23.30;91.70;;;;;;5134364;27;20030;-77
2023/07/03 03:10:50;;;;;;;5.97;5.38;;;23.30;91.80;;;;;;5134252;27;20386;-77
2023/07/03 03:13:16;;;;;;;8.68;5.90;;;23.30;91.90;;;;;;5134362;27;20106;-79
2023/07/03 03:15:43;;;;;;;8.82;5.95;;;23.30;92.00;;;;;;5134410;27;20106;-78
2023/07/03 03:18:09;;;;;;;9.48;6.10;;;23.30;92.10;;;;;;5134276;27;20023;-77
2023/07/03 03:20:35;;;;;;;8.65;5.97;;;23.20;92.20;;;;;;5134009;27;20026;-77
2023/07/03 03:23:01;;;;;;;5.95;5.28;;;23.20;92.30;;;;;;5134283;27;20024;-77
2023/07/03 03:25:27;;;;;;;5.70;5.13;;;23.20;92.40;;;;;;5134109;27;20034;-77
2023/07/03 03:27:53;;;;;;;9.07;6.03;;;23.20;92.40;;;;;;5133757;27;20031;-77
2023/07/03 03:30:19;;;;;;;13.45;6.20;;;23.20;92.50;;;;;;5133760;27;20070;-77
2023/07/03 03:32:45;;;;;;;12.32;5.95;;;23.20;92.60;;;;;;5133931;27;20023;-77
2023/07/03 03:35:10;;;;;;;8.35;6.47;;;23.20;92.70;;;;;;5115628;27;20030;-77
2023/07/03 03:37:36;;;;;;;8.15;5.82;;;23.20;92.80;;;;;;5134229;27;20019;-77
2023/07/03 03:40:04;;;;;;;8.98;6.22;;;23.10;92.70;;;;;;5133956;27;20034;-77
2023/07/03 03:42:31;;;;;;;9.27;6.50;;;23.10;92.60;;;;;;5133878;27;20015;-77
2023/07/03 03:44:57;;;;;;;9.05;5.95;;;23.10;92.60;;;;;;5133892;27;20034;-77
2023/07/03 03:47:23;;;;;;;8.07;5.68;;;23.10;92.60;;;;;;5133801;27;20027;-77
2023/07/03 03:49:48;;;;;;;8.60;5.40;;;23.00;92.60;;;;;;5133582;27;20042;-77
2023/07/03 03:52:14;;;;;;;11.52;5.97;;;23.00;92.70;;;;;;5115392;27;20049;-77
2023/07/03 03:54:40;;;;;;;7.53;5.57;;;23.00;92.80;;;;;;5133624;27;20034;-77
2023/07/03 03:57:06;;;;;;;9.85;5.78;;;23.00;93.00;;;;;;5133577;27;20098;-77
2023/07/03 03:59:32;;;;;;;8.35;6.20;;;23.00;93.20;;;;;;5133782;27;20042;-77
2023/07/03 04:01:57;;;;;;;8.80;6.20;;;23.00;93.40;;;;;;5133271;27;20027;-77
2023/07/03 04:04:23;;;;;;;9.43;6.13;;;23.00;93.50;;;;;;5133408;27;20031;-77
2023/07/03 04:06:49;;;;;;;6.80;5.95;;;23.00;93.70;;;;;;5133483;27;20019;-78
2023/07/03 04:09:14;;;;;;;9.20;5.88;;;23.00;93.70;;;;;;5133735;27;20084;-77
2023/07/03 04:11:40;;;;;;;8.90;6.13;;;23.00;93.80;;;;;;5133147;27;20062;-77
2023/07/03 04:14:06;;;;;;;7.38;5.88;;;23.10;93.80;;;;;;5133375;28;20026;-78
2023/07/03 04:16:32;;;;;;;6.93;5.53;;;23.00;93.70;;;;;;5133285;27;20042;-77
2023/07/03 04:18:58;;;;;;;6.00;5.40;;;23.00;93.70;;;;;;5133417;27;20026;-77
2023/07/03 04:21:24;;;;;;;6.70;5.20;;;23.00;93.70;;;;;;5133153;27;20019;-78
2023/07/03 04:23:49;;;;;;;6.95;5.55;;;23.10;93.80;;;;;;5114948;28;20024;-77
2023/07/03 04:26:15;;;;;;;8.43;5.50;;;23.00;93.80;;;;;;5133495;28;20023;-78
2023/07/03 04:28:42;;;;;;;6.80;5.28;;;23.00;93.80;;;;;;5115002;28;20015;-78
2023/07/03 04:31:08;;;;;;;5.65;5.05;;;23.00;93.80;;;;;;5132959;27;20084;-77
2023/07/03 04:33:42;;;;;;;6.85;5.50;;;23.00;93.90;;;;;;5134497;27;20051;-77
2023/07/03 04:36:11;;;;;;;6.07;4.82;;;23.10;94.00;;;;;;5115123;28;20423;-77
2023/07/03 04:38:39;;;;;;;5.85;4.97;;;23.00;93.70;;;;;;5133123;28;20376;-77
2023/07/03 04:41:04;;;;;;;5.63;4.75;;;23.10;93.60;;;;;;5133509;28;20029;-77
2023/07/03 04:43:31;;;;;;;9.07;6.72;;;23.10;93.50;;;;;;5133306;27;20102;-78
2023/07/03 04:46:03;;;;;;;5.97;4.97;;;23.10;93.30;;;;;;5133163;27;20020;-76
2023/07/03 04:48:29;;;;;;;8.27;5.53;;;23.00;93.20;;;;;;5133265;27;20050;-77
2023/07/03 04:50:55;;;;;;;7.80;5.85;;;23.00;93.20;;;;;;5133140;27;20031;-77
2023/07/03 04:53:21;;;;;;;8.55;5.88;;;23.00;93.20;;;;;;5133219;27;20068;-78
2023/07/03 04:55:47;;;;;;;12.23;6.78;;;23.00;93.40;;;;;;5133689;27;20042;-77
2023/07/03 04:58:13;;;;;;;9.48;6.82;;;23.00;93.50;;;;;;5133048;27;20106;-78
2023/07/03 05:00:40;;;;;;;9.60;7.68;;;23.00;93.60;;;;;;5133183;27;20126;-77
2023/07/03 05:03:07;;;;;;;10.48;7.20;;;23.00;93.80;;;;;;5132974;27;20011;-78
2023/07/03 05:05:33;;;;;;;11.68;6.60;;;23.00;93.80;;;;;;5132914;27;20023;-77
2023/07/03 05:07:59;;;;;;;6.72;6.00;;;22.90;93.60;;;;;;5134226;27;20101;-76
2023/07/03 05:10:25;;;;;;;9.57;6.75;;;22.90;93.50;;;;;;5136511;27;20055;-77
2023/07/03 05:12:51;;;;;;;8.13;6.40;;;22.90;93.40;;;;;;5136845;27;20055;-77
2023/07/03 05:15:18;;;;;;;9.48;6.50;;;22.90;93.50;;;;;;5136735;27;20458;-77
2023/07/03 05:17:49;;;;;;;10.20;6.22;;;22.90;93.30;;;;;;5125008;27;20415;-77
2023/07/03 05:20:18;;;;;;;9.52;7.72;;;22.80;93.10;;;;;;5116022;28;20016;-77
2023/07/03 05:22:44;;;;;;;7.53;6.20;;;22.90;93.20;;;;;;5115870;28;20022;-77
2023/07/03 05:25:12;;;;;;;10.05;6.68;;;22.90;93.30;;;;;;5115701;28;20015;-77
2023/07/03 05:27:38;;;;;;;8.68;5.93;;;22.90;93.40;;;;;;5116058;28;20042;-77
2023/07/03 05:30:05;;;;;;;6.88;6.00;;;22.90;93.50;;;;;;5115867;28;20023;-77
2023/07/03 05:32:31;;;;;;;11.15;5.88;;;22.90;93.70;;;;;;5113576;28;20555;-77
2023/07/03 05:34:58;;;;;;;10.02;6.00;;;22.90;93.90;;;;;;5115277;28;20031;-77
2023/07/03 05:37:24;;;;;;;6.50;5.50;;;23.00;94.00;;;;;;5103315;27;20023;-72
2023/07/03 05:39:50;;;;;;;8.02;5.97;;;23.00;93.90;;;;;;5135938;27;20411;-76
2023/07/03 05:42:17;;;;;;;6.82;5.95;;;23.00;93.90;;;;;;5117150;27;20023;-78
2023/07/03 05:44:43;;;;;;;7.53;5.43;;;23.00;94.00;;;;;;5135721;27;20029;-76
2023/07/03 05:47:09;;;;;;;7.70;5.13;;;23.00;94.10;;;;;;5132126;27;20020;-76
2023/07/03 05:49:35;;;;;;;5.40;4.80;;;23.00;94.10;;;;;;5114896;28;20473;-72
2023/07/03 05:52:01;;;;;;;5.90;4.70;;;23.00;94.10;;;;;;5114945;28;20080;-75
2023/07/03 05:54:27;;;;;;;6.38;5.20;;;23.00;94.20;;;;;;5114701;28;20141;-75
2023/07/03 05:57:00;;;;;;;10.63;5.25;;;23.00;94.20;;;;;;5114847;28;20501;-75
2023/07/03 05:59:26;;;;;;;9.70;5.20;;;23.10;94.40;;;;;;5114724;28;20480;-75
2023/07/03 06:01:54;;;;;;;6.47;5.07;;;23.00;94.50;;;;;;5114726;28;20035;-75
2023/07/03 06:04:22;;;;;;;6.00;5.40;;;23.00;94.50;;;;;;5114616;28;20516;-75
2023/07/03 06:06:52;;;;;;;6.13;4.97;;;23.10;94.50;;;;;;5114716;28;20034;-74
2023/07/03 06:09:17;;;;;;;6.95;5.35;;;23.00;94.50;;;;;;5096208;28;20042;-74
2023/07/03 06:11:43;;;;;;;7.82;5.30;;;23.10;94.60;;;;;;5114207;28;20513;-75
2023/07/03 06:14:15;;;;;;;10.50;5.22;;;23.10;94.80;;;;;;5114999;28;20089;-75
2023/07/03 06:16:42;;;;;;;8.10;4.90;;;23.10;94.90;;;;;;5114346;28;20055;-75
2023/07/03 06:19:08;;;;;;;5.10;4.60;;;23.10;94.90;;;;;;5113928;27;20016;-76
2023/07/03 06:21:34;;;;;;;7.75;5.00;;;23.10;95.00;;;;;;5114058;28;20039;-78
2023/07/03 06:24:00;;;;;;;9.60;4.95;;;23.10;94.90;;;;;;5114204;28;20019;-78
2023/07/03 06:26:28;;;;;;;5.80;4.90;;;23.10;94.90;;;;;;5114107;28;20055;-78
2023/07/03 06:28:54;;;;;;;5.53;4.90;;;23.10;94.90;;;;;;5113929;28;20028;-79
2023/07/03 06:31:19;;;;;;;6.32;4.75;;;23.10;94.90;;;;;;5114217;28;20039;-78
2023/07/03 06:33:45;;;;;;;7.28;5.00;;;23.10;94.80;;;;;;5114492;28;20023;-78
2023/07/03 06:36:11;;;;;;;5.65;4.68;;;23.10;94.80;;;;;;5114236;28;20333;-79
2023/07/03 06:38:36;;;;;;;5.38;4.30;;;23.10;94.90;;;;;;5114051;28;20016;-78
2023/07/03 06:41:02;;;;;;;6.15;5.07;;;23.10;94.90;;;;;;5113709;28;20103;-78
2023/07/03 06:43:28;;;;;;;5.90;4.80;;;23.10;94.90;;;;;;5113887;28;20019;-79
2023/07/03 06:45:54;;;;;;;6.38;4.93;;;23.00;94.80;;;;;;5114254;28;20031;-78
2023/07/03 06:48:19;;;;;;;6.90;4.97;;;23.00;94.80;;;;;;5114290;28;20024;-79
2023/07/03 06:50:45;;;;;;;7.05;4.78;;;23.00;94.90;;;;;;5114190;28;20422;-79
2023/07/03 06:53:11;;;;;;;6.40;4.93;;;23.00;95.10;;;;;;5114484;28;20042;-79
2023/07/03 06:55:37;;;;;;;8.10;5.10;;;23.00;95.20;;;;;;5114227;27;20051;-78
2023/07/03 06:58:03;;;;;;;6.28;5.15;;;23.00;95.20;;;;;;5113819;28;20019;-78
2023/07/03 07:00:29;;;;;;;5.40;4.80;;;23.00;95.10;;;;;;5113949;28;20026;-79
2023/07/03 07:02:54;;;;;;;12.02;5.47;;;23.00;95.00;;;;;;5114030;28;20438;-78
2023/07/03 07:05:21;;;;;;;6.43;5.22;;;23.00;95.00;;;;;;5113927;28;20027;-75
2023/07/03 07:07:47;;;;;;;6.45;4.97;;;23.00;95.00;;;;;;5114113;28;20023;-75
2023/07/03 07:10:12;;;;;;;7.72;5.32;;;23.00;95.00;;;;;;5113721;28;20046;-76
2023/07/03 07:12:38;;;;;;;7.32;5.88;;;22.90;95.00;;;;;;5113964;27;20029;-76
2023/07/03 07:15:04;;;;;;;7.93;5.82;;;22.90;95.10;;;;;;5113607;28;20477;-75
2023/07/03 07:17:30;;;;;;;8.38;5.13;;;22.90;95.10;;;;;;5113412;28;20043;-75
2023/07/03 07:19:56;;;;;;;8.30;5.43;;;22.90;95.00;;;;;;5113995;28;20022;-79
2023/07/03 07:22:22;;;;;;;6.05;5.05;;;22.90;95.00;;;;;;5113699;28;20023;-79
2023/07/03 07:24:48;;;;;;;11.38;5.22;;;22.90;94.90;;;;;;5113544;28;20020;-79
2023/07/03 07:27:13;;;;;;;5.50;4.65;;;22.90;94.80;;;;;;5113712;28;20035;-85
2023/07/03 07:29:40;;;;;;;7.18;5.45;;;22.90;94.90;;;;;;5113781;28;20058;-80
2023/07/03 07:32:06;;;;;;;5.90;5.10;;;22.90;94.90;;;;;;5113105;28;20032;-80
2023/07/03 07:34:32;;;;;;;7.45;5.75;;;22.90;95.00;;;;;;5113799;28;20020;-81
2023/07/03 07:36:58;;;;;;;6.43;5.10;;;22.90;95.00;;;;;;5113648;28;20023;-81
2023/07/03 07:39:26;;;;;;;8.45;5.28;;;22.90;95.10;;;;;;5114245;28;20032;-78
2023/07/03 07:41:51;;;;;;;9.10;5.63;;;22.90;95.30;;;;;;5114009;28;20381;-82
2023/07/03 07:44:18;;;;;;;9.38;5.30;;;22.90;95.40;;;;;;5114124;28;20025;-83
2023/07/03 07:46:44;;;;;;;6.20;4.78;;;22.90;95.50;;;;;;5114306;28;20555;-77
2023/07/03 07:49:09;;;;;;;9.85;5.03;;;22.90;95.60;;;;;;5113720;28;20086;-77
2023/07/03 07:51:35;;;;;;;8.15;5.13;;;22.80;95.50;;;;;;5117427;28;20039;-75
2023/07/03 07:54:03;;;;;;;9.23;5.53;;;22.80;95.50;;;;;;5120954;28;20024;-78
2023/07/03 07:56:28;;;;;;;10.20;5.82;;;22.90;95.70;;;;;;5128608;28;20032;-76
2023/07/03 07:58:54;;;;;;;7.63;5.57;;;22.90;95.80;;;;;;5113358;28;20077;-75
2023/07/03 08:01:20;;;;;;;8.90;5.43;;;22.90;95.90;;;;;;5113197;28;20039;-75
2023/07/03 08:03:46;;;;;;;7.57;5.25;;;22.90;95.90;;;;;;5113183;28;20020;-75
2023/07/03 08:06:13;;;;;;;10.48;4.93;;;22.90;96.00;;;;;;5113069;28;20131;-76
2023/07/03 08:08:39;;;;;;;8.90;5.30;;;23.00;96.00;;;;;;5113063;28;20023;-76
2023/07/03 08:11:06;;;;;;;7.93;5.45;;;23.00;96.00;;;;;;5091288;28;20048;-76
2023/07/03 08:13:33;;;;;;;5.53;4.80;;;22.90;96.00;;;;;;5093000;28;20555;-75
2023/07/03 08:16:00;;;;;;;7.00;5.28;;;22.90;96.00;;;;;;5091336;28;20363;-75
2023/07/03 08:18:26;;;;;;;10.07;5.07;;;23.00;96.00;;;;;;5091746;28;20465;-77
2023/07/03 08:20:52;;;;;;;7.70;4.90;;;23.00;96.00;;;;;;5092810;28;20095;-76
2023/07/03 08:23:18;;;;;;;8.13;4.75;;;23.00;96.00;;;;;;5092884;28;20080;-77
2023/07/03 08:25:50;;;;;;;6.70;5.10;;;23.00;95.90;;;;;;5092738;28;20028;-75
2023/07/03 08:28:15;;;;;;;6.90;4.80;;;23.00;95.90;;;;;;5090525;28;20028;-75
2023/07/03 08:30:41;;;;;;;7.00;4.55;;;23.00;96.00;;;;;;5092319;28;20059;-76
2023/07/03 08:33:07;;;;;;;5.30;4.50;;;23.00;96.00;;;;;;5092399;28;20418;-75
2023/07/03 08:35:33;;;;;;;8.43;4.53;;;23.10;96.00;;;;;;5092386;28;20426;-75
2023/07/03 08:38:02;;;;;;;6.88;4.70;;;23.10;95.90;;;;;;5092317;28;20024;-74
2023/07/03 08:40:28;;;;;;;6.88;4.68;;;23.10;95.90;;;;;;5091308;28;20024;-75
2023/07/03 08:42:59;;;;;;;8.15;4.63;;;23.10;95.80;;;;;;5093921;28;20028;-74
2023/07/03 08:45:52;;;;;;;8.77;4.75;;;23.10;95.80;;;;;;5096112;28;20028;-76
2023/07/03 08:48:24;;;;;;;5.57;4.57;;;23.20;95.90;;;;;;5088357;28;20039;-74
2023/07/03 08:50:54;;;;;;;;;;;23.20;95.90;;;;;;5096388;28;20572;-75
2023/07/03 08:53:24;;;;;;;6.30;4.18;;;23.20;95.90;;;;;;5095837;28;19904;-77
2023/07/03 08:56:05;;;;;;;7.63;3.85;;;23.20;95.90;;;;;;5096028;28;20028;-76
2023/07/03 08:58:31;;;;;;;4.30;3.90;;;23.20;95.80;;;;;;5096036;28;20050;-75
2023/07/03 09:01:21;;;;;;;3.92;3.42;;;23.20;95.80;;;;;;5096196;28;20016;-74
2023/07/03 09:04:25;;;;;;;4.57;3.80;;;23.20;95.70;;;;;;5095626;28;20489;-75
2023/07/03 09:06:58;;;;;;;3.78;3.33;;;23.20;95.50;;;;;;5096003;28;20052;-76
2023/07/03 09:09:32;;;;;;;4.32;3.42;;;23.30;95.60;;;;;;5095781;28;20066;-76
2023/07/03 09:12:17;;;;;;;5.65;3.22;;;23.30;95.50;;;;;;5115419;28;20087;-75
2023/07/03 09:14:50;;;;;;;5.47;3.03;;;23.30;95.30;;;;;;5121669;22;20038;-76
2023/07/03 09:17:16;;;;;;;5.63;3.50;;;23.20;95.30;;;;;;5034885;28;20416;-75
2023/07/03 09:19:46;;;;;;;5.22;3.50;;;23.20;95.30;;;;;;5035465;28;20029;-76
2023/07/03 09:22:54;;;;;;;7.03;3.38;;;23.20;95.20;;;;;;5035543;28;20029;-76
2023/07/03 09:25:39;;;;;;;9.60;3.30;;;23.30;95.20;;;;;;5015475;28;20077;-75
2023/07/03 09:28:08;;;;;;;3.67;3.05;;;23.30;95.20;;;;;;5015172;28;20025;-75
2023/07/03 09:30:33;;;;;;;4.30;3.30;;;23.20;95.10;;;;;;5014961;28;20041;-75
2023/07/03 09:32:59;;;;;;;5.30;3.10;;;23.30;95.00;;;;;;5014936;28;20042;-75
2023/07/03 09:35:35;;;;;;;3.63;2.80;;;23.30;95.00;;;;;;5015123;28;20029;-75
2023/07/03 09:38:01;;;;;;;6.10;3.17;;;23.30;94.90;;;;;;5014765;28;20057;-75
2023/07/03 09:40:32;;;;;;;4.65;3.08;;;23.30;94.90;;;;;;5014651;28;20025;-77
2023/07/03 09:43:00;;;;;;;7.15;3.13;;;23.40;95.00;;;;;;5015211;28;20419;-77
2023/07/03 09:45:32;;;;;;;10.57;3.30;;;23.40;95.10;;;;;;5014960;28;20033;-77
2023/07/03 09:48:01;;;;;;;5.88;2.90;;;23.40;95.10;;;;;;5014884;28;20033;-76
2023/07/03 09:50:38;;;;;;;5.88;3.17;;;23.40;95.10;;;;;;5015105;28;20100;-76
2023/07/03 09:53:04;;;;;;;3.85;3.20;;;23.40;95.20;;;;;;5015012;28;20387;-76
2023/07/03 09:55:31;;;;;;;3.85;3.03;;;23.40;95.20;;;;;;5015140;28;20026;-76
2023/07/03 09:57:57;;;;;;;5.57;3.00;;;23.50;95.30;;;;;;5015038;28;20014;-76
2023/07/03 10:00:25;;;;;;;6.40;3.45;;;23.50;95.40;;;;;;5014865;28;20026;-76
2023/07/03 10:02:54;;;;;;;4.53;3.38;;;23.50;95.50;;;;;;5015209;28;20026;-76
2023/07/03 10:05:29;;;;;;;4.43;3.08;;;23.60;95.50;;;;;;5015160;28;20037;-75
2023/07/03 10:08:00;;;;;;;4.53;3.22;;;23.60;95.30;;;;;;5014667;28;20029;-75
2023/07/03 10:10:28;;;;;;;6.13;3.80;;;23.60;95.20;;;;;;5014713;28;20029;-76
2023/07/03 10:13:16;;;;;;;6.03;3.60;;;23.70;95.20;;;;;;5014640;28;20105;-78
2023/07/03 10:15:42;;;;;;;8.57;4.03;;;23.70;95.30;;;;;;5014208;28;20057;-76
2023/07/03 10:18:17;;;;;;;4.85;3.17;;;23.80;95.20;;;;;;5017585;28;20104;-76
2023/07/03 10:20:46;;;;;;;8.57;2.88;;;23.80;95.20;;;;;;5033956;28;20025;-76
2023/07/03 10:23:23;;;;;;;3.47;2.92;;;23.80;94.90;;;;;;5031230;28;20024;-77
2023/07/03 10:26:06;;;;;;;5.53;2.88;;;23.80;94.70;;;;;;5033914;28;20021;-76
2023/07/03 10:28:43;;;;;;;3.55;2.70;;;23.80;94.70;;;;;;5033864;28;20032;-76
2023/07/03 10:31:15;;;;;;;3.40;2.85;;;23.80;94.60;;;;;;5033329;28;20510;-76
2023/07/03 10:33:45;;;;;;;4.65;3.30;;;23.70;94.50;;;;;;5031377;28;20021;-76
2023/07/03 10:36:19;;;;;;;4.15;3.20;;;23.70;94.30;;;;;;5033937;28;20029;-73
2023/07/03 10:39:00;;;;;;;4.07;3.22;;;23.70;94.40;;;;;;5034329;28;20026;-75
2023/07/03 10:41:29;;;;;;;5.63;3.72;;;23.80;94.40;;;;;;5034477;28;20041;-82
2023/07/03 10:44:06;;;;;;;5.03;3.47;;;23.90;94.50;;;;;;5037034;28;20033;-84
2023/07/03 10:46:45;;;;;;;4.38;3.42;;;24.00;94.90;;;;;;5055069;28;20103;-91
2023/07/03 10:49:20;;;;;;;6.60;3.70;;;24.10;94.70;;;;;;5054701;28;20025;-89
2023/07/03 10:52:00;;;;;;;8.20;3.80;;;24.20;94.50;;;;;;5054312;28;20033;-90
2023/07/03 10:54:44;;;;;;;4.50;3.65;;;24.30;93.90;;;;;;5054457;28;20063;-91
2023/07/03 10:57:16;;;;;;;6.68;3.53;;;24.50;93.60;;;;;;5054612;28;20031;-89
2023/07/03 10:59:47;;;;;;;3.97;3.38;;;24.50;93.60;;;;;;5054691;28;20013;-89
2023/07/03 11:02:41;;;;;;;5.15;3.80;;;24.50;93.40;;;;;;5054371;28;20025;-90
2023/07/03 11:05:12;;;;;;;5.38;3.80;;;24.50;93.00;;;;;;5053804;28;20056;-90
2023/07/03 11:07:59;;;;;;;7.53;4.45;;;24.50;92.60;;;;;;5054457;28;20021;-91
2023/07/03 11:10:37;;;;;;;4.03;3.58;;;24.60;92.60;;;;;;5053536;28;20037;-76
2023/07/03 11:13:37;;;;;;;4.93;3.95;;;24.60;92.50;;;;;;5034954;28;20025;-77
2023/07/03 11:16:35;;;;;;;4.53;3.47;;;24.60;92.30;;;;;;5031268;28;20037;-87
2023/07/03 11:19:17;;;;;;;5.57;3.63;;;24.50;92.10;;;;;;5033239;28;20045;-90
2023/07/03 11:22:12;;;;;;;7.25;4.03;;;24.60;91.90;;;;;;5034074;28;20467;-89
2023/07/03 11:24:37;;;;;;;4.72;4.07;;;24.50;91.90;;;;;;5033797;28;20083;-89
2023/07/03 11:27:11;;;;;;;4.28;3.55;;;24.50;91.80;;;;;;5033716;28;20022;-90
2023/07/03 11:29:37;;;;;;;6.82;4.32;;;24.50;91.90;;;;;;5032638;28;20057;-89
2023/07/03 11:32:06;;;;;;;8.40;4.10;;;24.50;91.90;;;;;;5033717;28;20065;-91
2023/07/03 11:34:32;;;;;;;6.18;4.20;;;24.60;91.80;;;;;;5033662;28;20100;-92
2023/07/03 11:36:58;;;;;;;7.10;3.75;;;24.50;91.70;;;;;;5033402;28;20116;-91
2023/07/03 11:39:28;;;;;;;4.88;4.38;;;24.60;91.70;;;;;;5032712;28;20101;-87
2023/07/03 11:42:00;;;;;;;6.55;4.13;;;24.60;91.70;;;;;;5033613;28;20029;-89
2023/07/03 11:44:37;;;;;;;5.03;4.05;;;24.60;91.80;;;;;;5033377;28;20021;-88
2023/07/03 11:47:24;;;;;;;4.72;3.90;;;24.60;92.00;;;;;;5033912;28;20063;-90
2023/07/03 11:49:54;;;;;;;7.20;3.80;;;24.60;91.70;;;;;;5036678;28;20021;-89
2023/07/03 11:52:32;;;;;;;5.47;4.07;;;24.50;91.40;;;;;;5045903;28;20049;-89
2023/07/03 11:55:16;;;;;;;6.20;3.95;;;24.50;91.40;;;;;;5039113;28;20033;-89
2023/07/03 11:57:44;;;;;;;6.90;4.13;;;24.50;91.30;;;;;;5021738;28;20052;-83
2023/07/03 12:00:19;;;;;;;6.53;3.83;;;24.50;91.20;;;;;;5032372;28;20023;-76
2023/07/03 12:02:59;;;;;;;7.20;4.65;;;24.40;91.10;;;;;;5032524;28;20029;-74
2023/07/03 12:05:44;;;;;;;9.30;4.30;;;24.40;90.90;;;;;;5032290;28;20025;-74
2023/07/03 12:08:30;;;;;;;5.68;4.63;;;24.30;91.00;;;;;;5014650;28;20391;-76
2023/07/03 12:10:58;;;;;;;6.10;4.15;;;24.30;91.20;;;;;;5031672;28;20491;-75
2023/07/03 12:13:41;;;;;;;5.03;4.53;;;24.30;91.30;;;;;;5014976;28;20113;-91
2023/07/03 12:16:29;;;;;;;7.60;4.35;;;24.30;91.30;;;;;;5033275;28;20555;-88
2023/07/03 12:19:21;;;;;;;6.72;4.30;;;24.20;91.30;;;;;;5037576;28;20052;-87
2023/07/03 12:21:47;;;;;;;4.82;4.00;;;24.20;91.00;;;;;;5034690;28;20164;-89
2023/07/03 12:24:28;;;;;;;7.72;4.10;;;24.20;90.90;;;;;;5036386;28;20029;-91
2023/07/03 12:26:57;;;;;;;6.28;4.43;;;24.10;90.80;;;;;;5037730;28;20025;-90
2023/07/03 12:29:23;;;;;;;7.88;5.00;;;24.10;90.80;;;;;;5038021;28;20045;-88
2023/07/03 12:32:06;;;;;;;13.38;4.93;;;24.10;90.60;;;;;;5037367;28;20447;-83
2023/07/03 12:34:33;;;;;;;9.63;5.07;;;24.00;90.50;;;;;;5037498;28;20430;-92
2023/07/03 12:37:05;;;;;;;6.90;5.40;;;24.00;90.40;;;;;;5036842;28;20026;-88
2023/07/03 12:39:31;;;;;;;7.03;4.95;;;24.00;90.50;;;;;;5035995;28;20020;-88
2023/07/03 12:42:05;;;;;;;6.65;5.10;;;24.00;90.40;;;;;;5036365;28;20029;-81
2023/07/03 12:44:31;;;;;;;8.93;5.22;;;24.00;90.40;;;;;;5036092;28;20113;-82
2023/07/03 12:47:11;;;;;;;8.93;5.25;;;24.00;90.20;;;;;;5034338;28;20076;-86
2023/07/03 12:49:55;;;;;;;11.90;5.32;;;24.00;90.00;;;;;;5035915;28;20040;-85
2023/07/03 12:52:22;;;;;;;10.98;4.97;;;24.00;90.00;;;;;;5036224;28;20034;-86
2023/07/03 12:54:50;;;;;;;7.85;5.25;;;24.00;90.10;;;;;;5036228;28;20040;-86
2023/07/03 12:57:16;;;;;;;7.20;5.38;;;24.00;90.40;;;;;;5035754;28;20021;-84